Kurtamysh, Russia
Current Conditions -  °F | °C
As of 9:00 PM on Thursday 27 Nov 2014 (Local Time) from USCC Reporting Station
Clear Clear  
Wind Chill:   Ceiling: Unl
Heat Index:   Visibility: 6mi
Dew Point: -4°   Wind: 0mph
Humidity: 72%   Direction: NA
Pressure: 30.5"   Gusts: NA
Location:  54.91°N, 64.43°E
Report Text: USCC 271600Z 00000MPS CAVOK M16/M20 Q1033 27000060 NOSIG RMKQFE755
Loading
Personal Weather Stations






























Interactive Weather Map New forecast layout! Learn more

10-Day Weather Forecast

Advertisements
Track Severe Weather on mobile